WVL weather

Waterville Robert Lafleur Airport
Waterville, Maine, United States

Public forecast

Using degrees Fahrenheit for public forecast. Weather courtesy of forecast.io.

Current aviation weather report (METAR) for Waterville Robert Lafleur Airport

Retrieved 2019/10/22 17:56 UTC (6 minutes ago):

KWVL 221756Z AUTO VRB05KT 10SM CLR 14/06 A3015 RMK AO2 SLP236 T01440061 10144 20056 56013

Closest aviation forecast (TAF) to Waterville Robert Lafleur Airport

Closest forecast is Augusta State Airport, 13.8 nm (25.5 km) SSW. Retrieved 2019/10/22 18:22 UTC (0 seconds ago):

TAF KAUG 221720Z 2218/2318 12008KT P6SM BKN150 FM230100 10008KT P6SM OVC020 FM230300 09009KT 4SM RA OVC008 FM230700 09011KT 2SM +RA OVC003 FM231000 08009KT 1 1/2SM +RA OVC003 WS006/16010KT FM231600 32008KT 6SM -RA BR OVC015